createdAt,value
2018-10-19T00:00:20.279Z,0
2018-10-19T00:01:00.854Z,0
2018-10-19T00:01:41.429Z,0
2018-10-19T00:02:22.493Z,0
2018-10-19T00:03:03.165Z,0
2018-10-19T00:03:43.658Z,0
2018-10-19T00:04:24.227Z,0
2018-10-19T00:05:04.828Z,0
2018-10-19T00:05:45.351Z,0
2018-10-19T00:06:26.419Z,0
2018-10-19T00:07:06.466Z,0
2018-10-19T00:07:47.040Z,0
2018-10-19T00:08:27.632Z,0
2018-10-19T00:09:08.268Z,0
2018-10-19T00:09:48.779Z,0
2018-10-19T00:10:29.328Z,0
2018-10-19T00:11:09.931Z,0
2018-10-19T00:11:50.474Z,0
2018-10-19T00:12:31.223Z,0
2018-10-19T00:13:11.623Z,0
2018-10-19T00:13:52.166Z,0
2018-10-19T00:14:32.719Z,0
2018-10-19T00:15:13.390Z,0
2018-10-19T00:15:53.838Z,0
2018-10-19T00:16:34.388Z,0
2018-10-19T00:17:14.987Z,0
2018-10-19T00:17:55.506Z,0
2018-10-19T00:18:36.089Z,0
2018-10-19T00:19:17.597Z,0
2018-10-19T00:19:58.159Z,0
2018-10-19T00:20:38.767Z,0
2018-10-19T00:21:19.337Z,0
2018-10-19T00:21:59.917Z,0
2018-10-19T00:22:40.509Z,0
2018-10-19T00:23:21.044Z,0
2018-10-19T00:24:01.589Z,0
2018-10-19T00:24:42.159Z,0
2018-10-19T00:25:22.779Z,0
2018-10-19T00:26:03.355Z,0
2018-10-19T00:26:43.918Z,0
2018-10-19T00:27:24.478Z,0
2018-10-19T00:28:05.072Z,0
2018-10-19T00:28:45.645Z,0
2018-10-19T00:29:26.203Z,0
2018-10-19T00:30:06.760Z,0
2018-10-19T00:30:47.326Z,0
2018-10-19T00:31:27.897Z,0
2018-10-19T00:32:08.479Z,0
2018-10-19T00:32:49.091Z,0
2018-10-19T00:33:30.421Z,0
2018-10-19T00:34:10.203Z,0
2018-10-19T00:34:50.793Z,0
2018-10-19T00:35:31.374Z,0
2018-10-19T00:36:11.928Z,0
2018-10-19T00:36:52.577Z,0
2018-10-19T00:37:33.054Z,0
2018-10-19T00:38:13.640Z,0
2018-10-19T00:38:54.997Z,0
2018-10-19T00:39:35.531Z,0
2018-10-19T00:40:16.099Z,0
2018-10-19T00:40:56.689Z,0
2018-10-19T00:41:37.233Z,0
2018-10-19T00:42:17.829Z,0
2018-10-19T00:42:58.409Z,0
2018-10-19T00:43:38.982Z,0
2018-10-19T00:44:20.429Z,0
2018-10-19T00:45:00.126Z,0
2018-10-19T00:45:40.678Z,0
2018-10-19T00:46:21.943Z,0
2018-10-19T00:47:02.413Z,0
2018-10-19T00:47:42.988Z,0
2018-10-19T00:48:23.564Z,0
2018-10-19T00:49:04.115Z,0
2018-10-19T00:49:44.682Z,0
2018-10-19T00:50:25.930Z,0
2018-10-19T00:51:06.595Z,0
2018-10-19T00:51:47.115Z,0
2018-10-19T00:52:27.683Z,0
2018-10-19T00:53:08.242Z,0
2018-10-19T00:53:48.796Z,0
2018-10-19T00:54:29.382Z,0
2018-10-19T00:55:09.952Z,0
2018-10-19T00:55:50.515Z,0
2018-10-19T00:56:31.052Z,0
2018-10-19T00:57:11.642Z,0
2018-10-19T00:57:52.178Z,0
2018-10-19T00:58:32.750Z,0
2018-10-19T00:59:13.966Z,0
2018-10-19T00:59:53.876Z,0
2018-10-19T01:00:34.435Z,0
2018-10-19T01:01:15.026Z,0
2018-10-19T01:01:55.577Z,0
2018-10-19T01:02:36.146Z,0
2018-10-19T01:03:16.863Z,0
2018-10-19T01:03:57.293Z,0
2018-10-19T01:04:37.860Z,0
2018-10-19T01:05:18.456Z,0
2018-10-19T01:05:58.966Z,0
2018-10-19T01:06:39.592Z,0
2018-10-19T01:07:20.932Z,0
2018-10-19T01:08:01.429Z,0
2018-10-19T01:08:42.060Z,0
2018-10-19T01:09:22.728Z,0
2018-10-19T01:10:03.375Z,0
2018-10-19T01:10:43.928Z,0
2018-10-19T01:11:24.468Z,0
2018-10-19T01:12:06.495Z,0
2018-10-19T01:12:47.067Z,0
2018-10-19T01:13:27.674Z,0
2018-10-19T01:14:08.930Z,0
2018-10-19T01:14:49.431Z,0
2018-10-19T01:15:29.420Z,0
2018-10-19T01:16:10.935Z,0
2018-10-19T01:16:50.584Z,0
2018-10-19T01:17:31.182Z,0
2018-10-19T01:18:11.743Z,0
2018-10-19T01:18:52.843Z,0
2018-10-19T01:19:33.426Z,0
2018-10-19T01:20:13.984Z,0
2018-10-19T01:20:54.615Z,0
2018-10-19T01:21:35.121Z,0
2018-10-19T01:22:15.702Z,0
2018-10-19T01:22:56.253Z,0
2018-10-19T01:23:36.851Z,0
2018-10-19T01:24:17.426Z,0
2018-10-19T01:24:58.016Z,0
2018-10-19T01:25:39.091Z,0
2018-10-19T01:26:20.813Z,0
2018-10-19T01:27:01.736Z,0
2018-10-19T01:27:42.228Z,0
2018-10-19T01:28:23.404Z,0
2018-10-19T01:29:03.989Z,0
2018-10-19T01:29:44.549Z,0
2018-10-19T01:30:25.116Z,0
2018-10-19T01:31:05.702Z,0
2018-10-19T01:31:46.292Z,0
2018-10-19T01:32:26.850Z,0
2018-10-19T01:33:07.467Z,0
2018-10-19T01:33:47.970Z,0
2018-10-19T01:34:28.517Z,0
2018-10-19T01:35:09.145Z,0
2018-10-19T01:35:49.647Z,0
2018-10-19T01:36:30.231Z,0
2018-10-19T01:37:11.600Z,0
2018-10-19T01:37:52.175Z,0
2018-10-19T01:38:32.735Z,0
2018-10-19T01:39:13.324Z,0
2018-10-19T01:39:53.860Z,0
2018-10-19T01:40:34.420Z,0
2018-10-19T01:41:15.060Z,0
2018-10-19T01:41:55.537Z,0
2018-10-19T01:42:36.136Z,0
2018-10-19T01:43:16.705Z,0
2018-10-19T01:43:57.276Z,0
2018-10-19T01:44:37.841Z,0
2018-10-19T01:45:18.426Z,0
2018-10-19T01:45:58.996Z,0
2018-10-19T01:46:40.433Z,0
2018-10-19T01:47:20.105Z,0
2018-10-19T01:48:00.711Z,0
2018-10-19T01:48:41.269Z,0
2018-10-19T01:49:21.884Z,0
2018-10-19T01:50:02.472Z,0
2018-10-19T01:50:43.059Z,0
2018-10-19T01:51:24.231Z,0
2018-10-19T01:52:04.784Z,0
2018-10-19T01:52:45.355Z,0
2018-10-19T01:53:25.950Z,0
2018-10-19T01:54:06.540Z,0
2018-10-19T01:54:47.116Z,0
2018-10-19T01:55:27.700Z,0
2018-10-19T01:56:10.441Z,0
2018-10-19T01:56:50.598Z,0
2018-10-19T01:57:31.155Z,0
2018-10-19T01:58:11.717Z,0
2018-10-19T01:58:52.304Z,0
2018-10-19T01:59:32.883Z,0
2018-10-19T02:00:14.453Z,0
2018-10-19T02:00:55.035Z,0
2018-10-19T02:01:35.574Z,0
2018-10-19T02:02:16.824Z,0
2018-10-19T02:02:57.479Z,0
2018-10-19T02:03:37.969Z,0
2018-10-19T02:04:18.518Z,0
2018-10-19T02:05:00.194Z,0
2018-10-19T02:05:40.677Z,0
2018-10-19T02:06:21.240Z,0
2018-10-19T02:07:01.804Z,0
2018-10-19T02:07:42.386Z,0
2018-10-19T02:08:22.948Z,0
2018-10-19T02:09:03.600Z,0
2018-10-19T02:09:44.100Z,0
2018-10-19T02:10:24.649Z,0
2018-10-19T02:11:05.241Z,0
2018-10-19T02:11:45.785Z,0
2018-10-19T02:12:26.945Z,0
2018-10-19T02:13:07.554Z,0
2018-10-19T02:13:49.004Z,0
2018-10-19T02:14:29.566Z,0
2018-10-19T02:15:10.190Z,0
2018-10-19T02:15:50.731Z,0
2018-10-19T02:16:32.241Z,0
2018-10-19T02:17:13.545Z,0
2018-10-19T02:17:53.361Z,0
2018-10-19T02:18:33.934Z,0
2018-10-19T02:19:14.555Z,0
2018-10-19T02:19:55.118Z,0
2018-10-19T02:20:36.446Z,0
2018-10-19T02:21:17.014Z,0
2018-10-19T02:21:57.569Z,0
2018-10-19T02:22:38.152Z,0
2018-10-19T02:23:18.921Z,0
2018-10-19T02:24:00.001Z,0
2018-10-19T02:24:40.563Z,0
2018-10-19T02:25:21.148Z,0
2018-10-19T02:26:02.465Z,0
2018-10-19T02:26:42.274Z,0
2018-10-19T02:27:22.834Z,0
2018-10-19T02:28:03.394Z,0
2018-10-19T02:28:43.959Z,0
2018-10-19T02:29:24.500Z,0
2018-10-19T02:30:05.617Z,0
2018-10-19T02:30:46.171Z,0
2018-10-19T02:31:26.746Z,0
2018-10-19T02:32:07.305Z,0
2018-10-19T02:32:47.891Z,0
2018-10-19T02:33:28.470Z,0
2018-10-19T02:34:09.865Z,0
2018-10-19T02:34:50.596Z,0
2018-10-19T02:35:31.254Z,0
2018-10-19T02:36:11.838Z,0
2018-10-19T02:36:52.388Z,0
2018-10-19T02:37:33.960Z,0
2018-10-19T02:38:14.549Z,0
2018-10-19T02:38:55.175Z,0
2018-10-19T02:39:35.699Z,0
2018-10-19T02:40:16.307Z,0
2018-10-19T02:40:57.893Z,0
2018-10-19T02:41:38.950Z,0
2018-10-19T02:42:19.590Z,0
2018-10-19T02:43:00.150Z,0
2018-10-19T02:43:40.720Z,0
2018-10-19T02:44:22.115Z,0
2018-10-19T02:45:02.687Z,0
2018-10-19T02:45:43.273Z,0
2018-10-19T02:46:23.855Z,0
2018-10-19T02:47:04.549Z,0
2018-10-19T02:47:45.021Z,0
2018-10-19T02:48:26.454Z,0
2018-10-19T02:49:07.091Z,0
2018-10-19T02:49:48.455Z,0
2018-10-19T02:50:28.220Z,0
2018-10-19T02:51:09.496Z,0
2018-10-19T02:51:49.391Z,0
2018-10-19T02:52:29.965Z,0
2018-10-19T02:53:10.598Z,0
2018-10-19T02:53:51.123Z,0
2018-10-19T02:54:32.617Z,0
2018-10-19T02:55:14.097Z,0
2018-10-19T02:55:54.663Z,0
2018-10-19T02:56:35.241Z,0
2018-10-19T02:57:15.902Z,0
2018-10-19T02:57:56.397Z,0
2018-10-19T02:58:36.978Z,0
2018-10-19T02:59:17.564Z,0
2018-10-19T02:59:58.132Z,0
2018-10-19T03:00:41.264Z,0
2018-10-19T03:01:21.845Z,0
2018-10-19T03:02:02.401Z,0
2018-10-19T03:02:42.974Z,0
2018-10-19T03:03:23.548Z,0
2018-10-19T03:04:04.126Z,0
2018-10-19T03:04:44.689Z,0
2018-10-19T03:05:25.259Z,0
2018-10-19T03:06:05.816Z,0
2018-10-19T03:06:46.379Z,0
2018-10-19T03:07:26.934Z,0
2018-10-19T03:08:07.499Z,0
2018-10-19T03:08:48.096Z,0
2018-10-19T03:09:28.649Z,0
2018-10-19T03:10:09.218Z,0
2018-10-19T03:10:49.784Z,0
2018-10-19T03:11:30.369Z,0
2018-10-19T03:12:11.491Z,0
2018-10-19T03:12:52.045Z,0
2018-10-19T03:13:32.594Z,0
2018-10-19T03:14:13.958Z,0
2018-10-19T03:14:53.754Z,0
2018-10-19T03:15:34.287Z,0
2018-10-19T03:16:14.851Z,0
2018-10-19T03:16:55.404Z,0
2018-10-19T03:17:35.966Z,0
2018-10-19T03:18:16.545Z,0
2018-10-19T03:18:57.108Z,0
2018-10-19T03:19:38.451Z,0
2018-10-19T03:20:18.242Z,0
2018-10-19T03:20:58.888Z,0
2018-10-19T03:21:39.382Z,0
2018-10-19T03:22:19.951Z,0
2018-10-19T03:23:00.557Z,0
2018-10-19T03:23:41.087Z,0
2018-10-19T03:24:21.811Z,0
2018-10-19T03:25:02.382Z,0
2018-10-19T03:25:42.945Z,0
2018-10-19T03:26:23.496Z,0
2018-10-19T03:27:04.106Z,0
2018-10-19T03:27:44.672Z,0
2018-10-19T03:28:25.231Z,0
2018-10-19T03:29:05.903Z,0
2018-10-19T03:29:46.371Z,0
2018-10-19T03:30:26.932Z,0
2018-10-19T03:31:07.666Z,0
2018-10-19T03:31:48.081Z,0
2018-10-19T03:32:28.659Z,0
2018-10-19T03:33:09.326Z,0
2018-10-19T03:33:49.824Z,0
2018-10-19T03:34:30.384Z,0
2018-10-19T03:35:10.997Z,0
2018-10-19T03:35:51.508Z,0
2018-10-19T03:36:32.105Z,0
2018-10-19T03:37:12.693Z,0
2018-10-19T03:37:53.241Z,0
2018-10-19T03:38:35.636Z,0
2018-10-19T03:39:16.301Z,0
2018-10-19T03:39:56.798Z,0
2018-10-19T03:40:37.361Z,0
2018-10-19T03:41:17.954Z,0
2018-10-19T03:41:58.474Z,0
2018-10-19T03:42:39.026Z,0
2018-10-19T03:43:19.734Z,0
2018-10-19T03:44:00.291Z,0
2018-10-19T03:44:40.854Z,0
2018-10-19T03:45:21.413Z,0
2018-10-19T03:46:02.017Z,0
2018-10-19T03:46:42.576Z,0
2018-10-19T03:47:23.148Z,0
2018-10-19T03:48:03.725Z,0
2018-10-19T03:48:44.334Z,0
2018-10-19T03:49:24.963Z,0
2018-10-19T03:50:05.488Z,0
2018-10-19T03:50:46.044Z,0
2018-10-19T03:51:26.612Z,0
2018-10-19T03:52:07.194Z,0
2018-10-19T03:52:47.749Z,0
2018-10-19T03:53:28.331Z,0
2018-10-19T03:54:08.884Z,0
2018-10-19T03:54:49.458Z,0
2018-10-19T03:55:30.005Z,0
2018-10-19T03:56:10.586Z,0
2018-10-19T03:56:51.263Z,0
2018-10-19T03:57:31.819Z,0
2018-10-19T03:58:12.378Z,0
2018-10-19T03:58:52.938Z,0
2018-10-19T03:59:33.485Z,0
2018-10-19T04:00:14.071Z,0
2018-10-19T04:00:54.620Z,0
2018-10-19T04:01:35.185Z,0
2018-10-19T04:02:15.750Z,0
2018-10-19T04:02:56.349Z,0
2018-10-19T04:03:36.951Z,0
2018-10-19T04:04:17.439Z,0
2018-10-19T04:04:58.011Z,0
2018-10-19T04:05:38.567Z,0
2018-10-19T04:06:19.129Z,0
2018-10-19T04:06:59.709Z,0
2018-10-19T04:07:40.270Z,0
2018-10-19T04:08:20.842Z,0
2018-10-19T04:09:01.479Z,0
2018-10-19T04:09:41.973Z,0
2018-10-19T04:10:22.562Z,0
2018-10-19T04:11:03.140Z,0
2018-10-19T04:11:43.661Z,0
2018-10-19T04:12:24.226Z,0
2018-10-19T04:13:04.780Z,0
2018-10-19T04:13:45.326Z,0
2018-10-19T04:14:25.896Z,0
2018-10-19T04:15:06.581Z,0
2018-10-19T04:15:47.056Z,0
2018-10-19T04:16:27.611Z,0
2018-10-19T04:17:08.247Z,0
2018-10-19T04:17:48.809Z,0
2018-10-19T04:18:32.784Z,0
2018-10-19T04:19:13.336Z,0
2018-10-19T04:19:53.898Z,0
2018-10-19T04:20:34.472Z,0
2018-10-19T04:21:16.004Z,0
2018-10-19T04:21:55.608Z,0
2018-10-19T04:22:36.167Z,0
2018-10-19T04:23:16.813Z,0
2018-10-19T04:23:57.820Z,0
2018-10-19T04:24:38.966Z,0
2018-10-19T04:25:18.936Z,0
2018-10-19T04:25:59.500Z,0
2018-10-19T04:26:40.091Z,0
2018-10-19T04:27:21.616Z,0
2018-10-19T04:28:01.219Z,0
2018-10-19T04:28:41.786Z,0
2018-10-19T04:29:22.351Z,0
2018-10-19T04:30:02.911Z,0
2018-10-19T04:30:43.464Z,0
2018-10-19T04:31:24.022Z,0
2018-10-19T04:32:04.615Z,0
2018-10-19T04:32:45.996Z,0
2018-10-19T04:33:26.569Z,0
2018-10-19T04:34:07.146Z,0
2018-10-19T04:34:47.676Z,0
2018-10-19T04:35:28.965Z,0
2018-10-19T04:36:08.813Z,0
2018-10-19T04:36:49.969Z,0
2018-10-19T04:37:30.573Z,0
2018-10-19T04:38:11.146Z,0
2018-10-19T04:38:51.710Z,0
2018-10-19T04:39:32.272Z,0
2018-10-19T04:40:12.881Z,0
2018-10-19T04:40:54.435Z,0
2018-10-19T04:41:35.506Z,0
2018-10-19T04:42:16.983Z,0
2018-10-19T04:42:56.962Z,0
2018-10-19T04:43:37.565Z,0
2018-10-19T04:44:18.988Z,0
2018-10-19T04:44:59.581Z,0
2018-10-19T04:45:40.125Z,0
2018-10-19T04:46:20.687Z,0
2018-10-19T04:47:01.314Z,0
2018-10-19T04:47:42.089Z,0
2018-10-19T04:48:22.678Z,0
2018-10-19T04:49:03.972Z,0
2018-10-19T04:49:44.633Z,0
2018-10-19T04:50:25.195Z,0
2018-10-19T04:51:05.819Z,0
2018-10-19T04:51:46.333Z,0
2018-10-19T04:52:28.376Z,0
2018-10-19T04:53:09.420Z,0
2018-10-19T04:53:50.310Z,0
2018-10-19T04:54:32.855Z,0
2018-10-19T04:55:12.273Z,0
2018-10-19T04:55:53.463Z,0
2018-10-19T04:56:34.136Z,0
2018-10-19T04:57:14.817Z,0
2018-10-19T04:57:55.302Z,0
2018-10-19T04:58:35.858Z,0
2018-10-19T04:59:17.008Z,0
2018-10-19T04:59:57.035Z,0
2018-10-19T05:00:37.608Z,0
2018-10-19T05:01:18.168Z,0
2018-10-19T05:01:59.117Z,0
2018-10-19T05:02:40.798Z,0
2018-10-19T05:03:21.636Z,0
2018-10-19T05:04:02.648Z,0
2018-10-19T05:04:44.582Z,0
2018-10-19T05:05:26.268Z,0
2018-10-19T05:06:07.209Z,0
2018-10-19T05:06:48.137Z,0
2018-10-19T05:07:29.081Z,0
2018-10-19T05:08:10.037Z,0
2018-10-19T05:08:50.943Z,0
2018-10-19T05:09:31.958Z,4
2018-10-19T05:10:13.080Z,4
2018-10-19T05:10:53.688Z,4
2018-10-19T05:11:35.049Z,0
2018-10-19T05:12:15.808Z,0
2018-10-19T05:12:57.237Z,4
2018-10-19T05:13:37.870Z,4
2018-10-19T05:14:18.643Z,4
2018-10-19T05:14:59.097Z,4
2018-10-19T05:15:39.694Z,8
2018-10-19T05:16:20.287Z,4
2018-10-19T05:17:00.888Z,8
2018-10-19T05:17:41.451Z,8
2018-10-19T05:18:22.016Z,12
2018-10-19T05:19:02.603Z,12
2018-10-19T05:19:43.232Z,12
2018-10-19T05:20:23.827Z,16
2018-10-19T05:21:04.422Z,12
2018-10-19T05:21:45.091Z,16
2018-10-19T05:22:25.720Z,20
2018-10-19T05:23:06.340Z,24
2018-10-19T05:23:46.891Z,24
2018-10-19T05:24:27.589Z,24
2018-10-19T05:25:08.136Z,28
2018-10-19T05:25:48.746Z,36
2018-10-19T05:26:29.322Z,36
2018-10-19T05:27:10.511Z,40
2018-10-19T05:27:51.116Z,44
2018-10-19T05:28:31.722Z,48
2018-10-19T05:29:12.391Z,52
2018-10-19T05:29:53.485Z,56
2018-10-19T05:30:33.402Z,60
2018-10-19T05:31:13.956Z,68
2018-10-19T05:31:56.196Z,72
2018-10-19T05:32:36.748Z,80
2018-10-19T05:33:17.318Z,88
2018-10-19T05:33:58.576Z,92
2018-10-19T05:34:38.853Z,100
2018-10-19T05:35:20.055Z,104
2018-10-19T05:36:01.020Z,112
2018-10-19T05:36:41.822Z,120
2018-10-19T05:37:22.404Z,128
2018-10-19T05:38:02.975Z,136
2018-10-19T05:38:43.573Z,144
2018-10-19T05:39:24.134Z,152
2018-10-19T05:40:04.753Z,156
2018-10-19T05:40:46.229Z,160
2018-10-19T05:41:26.836Z,164
2018-10-19T05:42:07.398Z,172
2018-10-19T05:42:47.935Z,180
2018-10-19T05:43:28.517Z,188
2018-10-19T05:44:09.147Z,196
2018-10-19T05:44:49.629Z,204
2018-10-19T05:45:31.083Z,216
2018-10-19T05:46:10.788Z,228
2018-10-19T05:46:51.346Z,244
2018-10-19T05:47:31.991Z,256
2018-10-19T05:48:13.079Z,272
2018-10-19T05:50:41.158Z,328
2018-10-19T05:51:21.746Z,344
2018-10-19T05:52:02.306Z,356
2018-10-19T05:52:42.953Z,372
2018-10-19T05:53:23.504Z,380
2018-10-19T05:54:04.258Z,384
2018-10-19T05:54:44.832Z,392
2018-10-19T05:55:25.383Z,404
2018-10-19T05:56:06.051Z,416
2018-10-19T05:56:46.589Z,436
2018-10-19T05:57:27.163Z,460
2018-10-19T05:58:08.532Z,484
2018-10-19T05:58:48.346Z,516
2018-10-19T05:59:29.041Z,556
2018-10-19T06:00:09.618Z,588
2018-10-19T06:00:50.822Z,624
2018-10-19T06:01:31.387Z,644
2018-10-19T06:02:12.004Z,656
2018-10-19T06:02:52.530Z,668
2018-10-19T06:03:34.028Z,684
2018-10-19T06:04:13.738Z,712
2018-10-19T06:04:54.271Z,744
2018-10-19T06:05:34.780Z,788
2018-10-19T06:06:15.322Z,836
2018-10-19T06:06:55.899Z,888
2018-10-19T06:07:36.455Z,940
2018-10-19T06:08:17.177Z,996
2018-10-19T06:08:57.588Z,1048
2018-10-19T06:09:38.144Z,1084
2018-10-19T06:10:19.605Z,1112
2018-10-19T06:11:00.235Z,1144
2018-10-19T06:11:40.756Z,1168
2018-10-19T06:12:21.312Z,1184
2018-10-19T06:13:02.529Z,1192
2018-10-19T06:13:42.554Z,1200
2018-10-19T06:14:22.990Z,1224
2018-10-19T06:15:03.554Z,1244
2018-10-19T06:15:44.202Z,1272
2018-10-19T06:16:24.810Z,1276
2018-10-19T06:17:05.416Z,1244
2018-10-19T06:17:45.937Z,1264
2018-10-19T06:18:26.673Z,1340
2018-10-19T06:19:07.193Z,1404
2018-10-19T06:19:47.780Z,1432
2018-10-19T06:20:28.355Z,1480
2018-10-19T06:21:09.035Z,1560
2018-10-19T06:21:49.629Z,1620
2018-10-19T06:22:30.242Z,1652
2018-10-19T06:23:10.924Z,1656
2018-10-19T06:23:51.471Z,1656
2018-10-19T06:24:32.046Z,1656
2018-10-19T06:25:12.623Z,1680
2018-10-19T06:25:53.320Z,1724
2018-10-19T06:26:33.899Z,1780
2018-10-19T06:27:14.382Z,1856
2018-10-19T06:27:54.923Z,1932
2018-10-19T06:28:35.507Z,1988
2018-10-19T06:29:16.157Z,2024
2018-10-19T06:29:56.664Z,2016
2018-10-19T06:30:37.211Z,2012
2018-10-19T06:31:17.778Z,1992
2018-10-19T06:31:58.415Z,1964
2018-10-19T06:32:39.108Z,1920
2018-10-19T06:33:20.722Z,1892
2018-10-19T06:34:03.370Z,1860
2018-10-19T06:34:44.910Z,1852
2018-10-19T06:35:26.569Z,1860
2018-10-19T06:36:09.086Z,1888
2018-10-19T06:36:50.708Z,1900
2018-10-19T06:37:32.144Z,1912
2018-10-19T06:38:13.539Z,1916
2018-10-19T06:38:54.799Z,1924
2018-10-19T06:39:36.086Z,1916
2018-10-19T06:40:16.699Z,1888
2018-10-19T06:40:57.314Z,1856
2018-10-19T06:41:37.871Z,1832
2018-10-19T06:42:18.567Z,1804
2018-10-19T06:42:59.095Z,1740
2018-10-19T06:43:39.691Z,1568
2018-10-19T06:44:20.315Z,1444
2018-10-19T06:45:00.887Z,1440
2018-10-19T06:45:41.540Z,1512
2018-10-19T06:46:22.097Z,1608
2018-10-19T06:47:02.707Z,1672
2018-10-19T06:47:43.222Z,1740
2018-10-19T06:48:23.787Z,1800
2018-10-19T06:49:04.491Z,1884
2018-10-19T06:49:44.961Z,2008
2018-10-19T06:50:25.531Z,2100
2018-10-19T06:51:06.094Z,2148
2018-10-19T06:51:46.665Z,2164
2018-10-19T06:52:27.213Z,2156
2018-10-19T06:53:07.822Z,2160
2018-10-19T06:53:48.344Z,2172
2018-10-19T06:54:28.898Z,2188
2018-10-19T06:55:09.458Z,2220
2018-10-19T06:55:50.130Z,2272
2018-10-19T06:56:30.686Z,2332
2018-10-19T06:57:11.239Z,2400
2018-10-19T06:57:52.288Z,2464
2018-10-19T06:58:32.855Z,2496
2018-10-19T06:59:13.563Z,2524
2018-10-19T06:59:54.001Z,2544
2018-10-19T07:00:34.563Z,2548
2018-10-19T07:01:15.145Z,2536
2018-10-19T07:01:56.221Z,2508
2018-10-19T07:02:36.764Z,2480
2018-10-19T07:03:17.503Z,2480
2018-10-19T07:03:58.602Z,2496
2018-10-19T07:04:39.159Z,2528
2018-10-19T07:05:20.590Z,2576
2018-10-19T07:06:01.931Z,2628
2018-10-19T07:06:42.664Z,2680
2018-10-19T07:07:24.040Z,2732
2018-10-19T07:08:04.072Z,2768
2018-10-19T07:08:44.495Z,2796
2018-10-19T07:09:25.073Z,2812
2018-10-19T07:10:05.640Z,2832
2018-10-19T07:10:46.209Z,2852
2018-10-19T07:11:26.915Z,2892
2018-10-19T07:12:07.535Z,2944
2018-10-19T07:12:48.015Z,2980
2018-10-19T07:13:28.641Z,2996
2018-10-19T07:14:09.331Z,3008
2018-10-19T07:14:49.976Z,3024
2018-10-19T07:15:30.547Z,3040
2018-10-19T07:16:11.130Z,3044
2018-10-19T07:16:51.842Z,3088
2018-10-19T07:17:32.416Z,3144
2018-10-19T07:18:12.929Z,3196
2018-10-19T07:18:53.647Z,3220
2018-10-19T07:19:34.152Z,3236
2018-10-19T07:20:14.857Z,3244
2018-10-19T07:20:57.129Z,3268
2018-10-19T07:21:37.823Z,3300
2018-10-19T07:22:18.331Z,3352
2018-10-19T07:22:58.971Z,3432
2018-10-19T07:23:39.872Z,3496
2018-10-19T07:24:20.621Z,3540
2018-10-19T07:25:01.209Z,3548
2018-10-19T07:25:41.787Z,3552
2018-10-19T07:26:22.614Z,3552
2018-10-19T07:27:03.159Z,3528
2018-10-19T07:27:43.732Z,3552
2018-10-19T07:28:24.342Z,3608
2018-10-19T07:29:05.137Z,3680
2018-10-19T07:29:45.693Z,3752
2018-10-19T07:30:26.422Z,3832
2018-10-19T07:31:07.275Z,3904
2018-10-19T07:31:47.863Z,3972
2018-10-19T07:32:28.462Z,4032
2018-10-19T07:33:09.035Z,4068
2018-10-19T07:33:49.694Z,4124
2018-10-19T07:34:30.310Z,4176
2018-10-19T07:35:10.968Z,4236
2018-10-19T07:35:51.511Z,4332
2018-10-19T07:36:32.171Z,4460
2018-10-19T07:37:12.703Z,4620
2018-10-19T07:37:53.444Z,4816
2018-10-19T07:38:34.064Z,5008
2018-10-19T07:39:14.669Z,5184
2018-10-19T07:39:55.264Z,5312
2018-10-19T07:40:35.895Z,5424
2018-10-19T07:41:16.774Z,5560
2018-10-19T07:41:57.316Z,5680
2018-10-19T07:42:37.949Z,5816
2018-10-19T07:43:18.595Z,5972
2018-10-19T07:43:59.309Z,6148
2018-10-19T07:44:39.951Z,6332
2018-10-19T07:45:20.633Z,6568
2018-10-19T07:46:01.393Z,6788
2018-10-19T07:46:41.904Z,7224
2018-10-19T07:47:22.823Z,7964
2018-10-19T07:48:03.424Z,9012
2018-10-19T07:48:43.994Z,15044
2018-10-19T07:49:24.787Z,21696
2018-10-19T07:50:05.493Z,22784
2018-10-19T07:50:46.229Z,39584
2018-10-19T07:51:26.920Z,43104
2018-10-19T07:52:07.656Z,15008
2018-10-19T07:52:48.323Z,12868
2018-10-19T07:53:28.896Z,12620
2018-10-19T07:54:09.762Z,12256
2018-10-19T07:54:50.222Z,12512
2018-10-19T07:55:30.770Z,12976
2018-10-19T07:56:11.450Z,14384
2018-10-19T07:56:51.939Z,30560
2018-10-19T07:57:32.545Z,44960
2018-10-19T07:58:13.155Z,41504
2018-10-19T07:58:53.827Z,46816
2018-10-19T07:59:34.334Z,39456
2018-10-19T08:00:15.037Z,36320
2018-10-19T08:00:55.585Z,35456
2018-10-19T08:01:36.114Z,67104
2018-10-19T08:02:16.860Z,53344
2018-10-19T08:02:57.236Z,29600
2018-10-19T08:03:37.847Z,52928
2018-10-19T08:04:18.455Z,41056
2018-10-19T08:04:59.043Z,37024
2018-10-19T08:05:39.599Z,27392
2018-10-19T08:06:20.189Z,21856
2018-10-19T08:07:00.743Z,41376
2018-10-19T08:07:41.324Z,34400
2018-10-19T08:08:21.905Z,31424
2018-10-19T08:09:02.465Z,35136
2018-10-19T08:09:43.067Z,35648
2018-10-19T08:10:23.664Z,34912
2018-10-19T08:11:04.355Z,35264
2018-10-19T08:11:44.815Z,79808
2018-10-19T08:12:25.410Z,76512
2018-10-19T08:13:06.017Z,77024
2018-10-19T08:13:46.587Z,77536
2018-10-19T08:14:27.184Z,74560
2018-10-19T08:15:07.773Z,45472
2018-10-19T08:15:48.311Z,48480
2018-10-19T08:16:28.908Z,62976
2018-10-19T08:17:09.516Z,73568
2018-10-19T08:17:50.044Z,72032
2018-10-19T08:18:30.615Z,70624
2018-10-19T08:19:11.197Z,53184
2018-10-19T08:19:51.774Z,28032
2018-10-19T08:20:32.333Z,44032
2018-10-19T08:21:12.953Z,40608
2018-10-19T08:21:53.473Z,28512
2018-10-19T08:22:34.058Z,33568
2018-10-19T08:23:14.754Z,31072
2018-10-19T08:23:55.248Z,30752
2018-10-19T08:24:35.821Z,44768
2018-10-19T08:25:16.393Z,24384
2018-10-19T08:25:56.978Z,34688
2018-10-19T08:26:37.604Z,31584
2018-10-19T08:27:18.384Z,52992
2018-10-19T08:27:58.975Z,47168
2018-10-19T08:28:39.606Z,39552
2018-10-19T08:29:20.196Z,41248
2018-10-19T08:30:00.754Z,45664
2018-10-19T08:30:41.328Z,36000
2018-10-19T08:31:21.903Z,32832
2018-10-19T08:32:02.542Z,35424
2018-10-19T08:32:43.086Z,28960
2018-10-19T08:33:23.640Z,26656
2018-10-19T08:34:04.302Z,34752
2018-10-19T08:34:44.845Z,30816
2018-10-19T08:35:25.619Z,22496
2018-10-19T08:36:06.144Z,26400
2018-10-19T08:36:46.771Z,30464
2018-10-19T08:37:27.455Z,25152
2018-10-19T08:38:07.945Z,15100
2018-10-19T08:38:48.509Z,14564
2018-10-19T08:39:29.097Z,16896
2018-10-19T08:40:09.685Z,11428
2018-10-19T08:40:50.312Z,20544
2018-10-19T08:41:30.860Z,19712
2018-10-19T08:42:11.421Z,18912
2018-10-19T08:42:52.072Z,18080
2018-10-19T08:43:32.669Z,16928
2018-10-19T08:44:13.246Z,13896
2018-10-19T08:44:53.865Z,10280
2018-10-19T08:45:34.374Z,15616
2018-10-19T08:46:14.945Z,14904
2018-10-19T08:46:55.590Z,14444
2018-10-19T08:47:36.182Z,14160
2018-10-19T08:48:16.813Z,14112
2018-10-19T08:48:57.429Z,12496
2018-10-19T08:49:37.966Z,12616
2018-10-19T08:50:18.548Z,8732
2018-10-19T08:50:59.167Z,8828
2018-10-19T08:51:39.689Z,9136
2018-10-19T08:52:20.319Z,7936
2018-10-19T08:53:00.997Z,7700
2018-10-19T08:53:41.533Z,7068
2018-10-19T08:54:22.091Z,8516
2018-10-19T08:55:02.749Z,7748
2018-10-19T08:55:43.267Z,8244
2018-10-19T08:56:23.844Z,6352
2018-10-19T08:57:04.472Z,6176
2018-10-19T08:57:45.075Z,6912
2018-10-19T08:58:25.661Z,7508
2018-10-19T08:59:07.161Z,7488
2018-10-19T08:59:47.727Z,6732
2018-10-19T09:00:28.285Z,7460
2018-10-19T09:01:08.839Z,7568
2018-10-19T09:01:49.442Z,7476
2018-10-19T09:02:30.640Z,6732
2018-10-19T09:03:11.267Z,6380
2018-10-19T09:03:51.752Z,6316
2018-10-19T09:04:32.321Z,5980
2018-10-19T09:05:12.989Z,7156
2018-10-19T09:05:53.516Z,6528
2018-10-19T09:06:34.093Z,7008
2018-10-19T09:07:14.679Z,6880
2018-10-19T09:07:55.250Z,7044
2018-10-19T09:08:35.821Z,6844
2018-10-19T09:09:16.509Z,6688
2018-10-19T09:09:57.031Z,6552
2018-10-19T09:10:37.636Z,6672
2018-10-19T09:11:18.328Z,6628
2018-10-19T09:11:58.839Z,6728
2018-10-19T09:12:39.629Z,6928
2018-10-19T09:13:20.021Z,6772
2018-10-19T09:14:00.670Z,6616
2018-10-19T09:14:41.240Z,6584
2018-10-19T09:15:21.884Z,6780
2018-10-19T09:16:02.373Z,6800
2018-10-19T09:16:42.944Z,6920
2018-10-19T09:17:23.500Z,6980
2018-10-19T09:18:04.121Z,6924
2018-10-19T09:18:44.678Z,6708
2018-10-19T09:19:25.252Z,6580
2018-10-19T09:20:05.898Z,6312
2018-10-19T09:20:46.507Z,6152
2018-10-19T09:21:27.110Z,5892
2018-10-19T09:22:07.729Z,5816
2018-10-19T09:22:48.265Z,5960
2018-10-19T09:23:28.821Z,5708
2018-10-19T09:24:09.387Z,5960
2018-10-19T09:24:50.025Z,4996
2018-10-19T09:25:30.594Z,4976
2018-10-19T09:26:11.179Z,5408
2018-10-19T09:26:51.738Z,5392
2018-10-19T09:27:32.286Z,5012
2018-10-19T09:28:12.869Z,4852
2018-10-19T09:28:53.511Z,4940
2018-10-19T09:29:34.097Z,4964
2018-10-19T09:30:14.588Z,4820
2018-10-19T09:30:55.180Z,4720
2018-10-19T09:31:35.813Z,5080
2018-10-19T09:32:16.423Z,5216
2018-10-19T09:32:56.993Z,5144
2018-10-19T09:33:37.556Z,4936
2018-10-19T09:34:18.138Z,4912
2018-10-19T09:34:58.759Z,4908